Aho, North Carolina
Current Conditions -  °F | °C
As of 5:35 PM on Monday 20 Oct 2014 (Local Time) from KTNB Reporting Station
Scattered Clouds Scattered Clouds  
Wind Chill: 58°   Ceiling: Unl
Heat Index: 58°   Visibility: 10mi
Dew Point: 42°   Wind: 8mph
Humidity: 55%   Direction: 310°NW
Pressure: 30.03"   Gusts: NA
Location:  36.0473°N, 81.8148°W
Report Text: KTNB 202135Z AUTO 31007KT 10SM SCT036 SCT045 15/06 A3003 RMK AO2 T01450056
Loading
Personal Weather Stations






























Interactive Weather Map New forecast layout! Learn more

10-Day Weather Forecast

Advertisements
Track Severe Weather on mobile